Main page
METAR-TAF:

METAR-TAF

Airports :

Sharjah International Airport

Sharjah, United Arab Emirates

latitude: 25-20N, longitude: 055-31E, elevation: 35 m

Current weather observation

The report was made 56 minutes ago, at 18:00 UTC
Wind 2 kt from the East
Temperature 37°C
Humidity 25%
Pressure 998 hPa
Visibility 10 km or more
no clouds below 1500 m and no cumulonimbus

METAR: OMSJ 231800Z 10002KT CAVOK 37/14 Q0998 NOSIG

Time: 22:56 (18:56 UTC)

Forecast

The report was made 1 hour and 56 minutes ago, at 17:00 UTC
Forecast valid from 23 at 18 UTC to 25 at 00 UTC
Wind 5 kt from the Northeast
Visibility: 8000 m
Probability 30%
from 23 at 23 UTC to 24 at 04 UTC
Visibility: 3000 m
haze
Becoming
from 24 at 07 UTC to 24 at 09 UTC
Wind 13 kt from the North/Northwest
Becoming
from 24 at 15 UTC to 24 at 17 UTC
Wind 5 kt from the East/Southeast

TAF: OMSJ 231700Z 2318/2500 05005KT 8000 NSC PROB30 2323/2404 3000 HZ BECMG 2407/2409 33013KT BECMG 2415/2417 11005KT

Weather observations and forecasts of more than 4000 airports (METAR and TAF reports).

The available stations are represented by yellow and red dots on the map.

Hover mouse over dot to see the name of the station.

Then click to see weather observations and forecasts.

To change the map : click on the green buttons with a black cross to zoom in, on the green button with a dash to zoom out, or on the green arrows for adjacent maps.


METAR-TAF: